ADS weather

Addison Airport
Dallas, Texas, United States

Public forecast

Using degrees Fahrenheit for public forecast. Weather courtesy of forecast.io.

METAR (pilot weather report)

Retrieved 2019/05/25 06:35 UTC (0 seconds ago):

KADS 250635Z AUTO 14010KT 10SM CLR 25/21 A3001 RMK AO2 T02480208

TAF (pilot weather forecast)

Closest forecast is Dallas Love Field, 7.3 nm (13.6 km) S. Retrieved 2019/05/25 06:33 UTC (0 seconds ago):

TAF KDAL 250530Z 2506/2606 16012KT P6SM BKN250 FM251000 17012KT P6SM BKN025 FM251600 17017KT P6SM SCT025 BKN050